Time;durP1;ratioP1;P1;durP2;ratioP2;P2;SDS_P1;SDS_P2;PMS_P1;PMS_P2;Temp;Humidity;BMP_temperature;BMP_pressure;BME280_temperature;BME280_humidity;BME280_pressure;Samples;Min_cycle;Max_cycle;Signal;HPM_P1;HPM_P2
2021/08/31 00:00:36;;;;;;;7.80;6.47;;;17.70;99.90;;;;;;5045880;28;20466;-85
2021/08/31 00:03:06;;;;;;;6.07;5.47;;;17.80;99.90;;;;;;5048428;28;20446;-85
2021/08/31 00:05:34;;;;;;;6.10;5.50;;;17.70;99.90;;;;;;5031703;28;21035;-85
2021/08/31 00:08:03;;;;;;;6.17;5.57;;;17.70;99.90;;;;;;5049383;28;20535;-86
2021/08/31 00:10:31;;;;;;;6.10;5.03;;;17.70;99.90;;;;;;5041861;28;20471;-86
2021/08/31 00:12:59;;;;;;;7.33;5.53;;;17.70;99.90;;;;;;5046796;28;20468;-86
2021/08/31 00:15:27;;;;;;;7.33;5.10;;;17.70;95.50;;;;;;5049031;28;20476;-85
2021/08/31 00:18:00;;;;;;;5.53;4.93;;;17.70;1.00;;;;;;5049470;28;20480;-86
2021/08/31 00:20:30;;;;;;;5.80;5.20;;;17.80;61.30;;;;;;5047104;28;20813;-87
2021/08/31 00:22:58;;;;;;;7.60;6.17;;;17.70;99.90;;;;;;5042901;28;20530;-86
2021/08/31 00:25:26;;;;;;;8.27;5.93;;;17.70;99.90;;;;;;5048569;28;20458;-85
2021/08/31 00:27:54;;;;;;;6.60;5.17;;;17.70;99.90;;;;;;5048557;28;20531;-85
2021/08/31 00:30:23;;;;;;;5.90;5.40;;;17.70;11.70;;;;;;5044951;28;20473;-87
2021/08/31 00:32:51;;;;;;;7.77;5.10;;;17.70;99.90;;;;;;5042174;28;21043;-86
2021/08/31 00:35:19;;;;;;;5.30;4.60;;;17.70;99.90;;;;;;5049902;28;20486;-85
2021/08/31 00:37:49;;;;;;;6.37;5.30;;;17.70;1.00;;;;;;5052780;28;20461;-86
2021/08/31 00:40:18;;;;;;;6.07;5.47;;;17.70;1.00;;;;;;5048457;28;20999;-86
2021/08/31 00:42:46;;;;;;;6.33;4.27;;;17.80;99.90;;;;;;5053741;28;20438;-86
2021/08/31 00:45:14;;;;;;;6.83;5.40;;;17.70;99.90;;;;;;5048299;28;20457;-86
2021/08/31 00:47:42;;;;;;;9.20;6.23;;;17.70;1.00;;;;;;5042826;28;20691;-85
2021/08/31 00:50:13;;;;;;;8.27;6.03;;;17.70;1.00;;;;;;5044611;28;20449;-86
2021/08/31 00:52:42;;;;;;;8.03;6.70;;;17.80;1.00;;;;;;5052561;28;20460;-85
2021/08/31 00:55:12;;;;;;;8.87;7.30;;;17.70;99.90;;;;;;5053073;28;20477;-85
2021/08/31 00:57:42;;;;;;;8.77;7.10;;;17.80;1.00;;;;;;5051752;28;20841;-85
2021/08/31 01:00:12;;;;;;;9.13;6.97;;;17.80;99.90;;;;;;5051075;28;20472;-85
2021/08/31 01:02:40;;;;;;;8.10;6.77;;;17.70;99.90;;;;;;5059172;28;21031;-85
2021/08/31 01:05:10;;;;;;;9.97;7.60;;;17.70;99.90;;;;;;5051839;28;20482;-87
2021/08/31 01:07:38;;;;;;;9.17;7.40;;;17.70;99.90;;;;;;5054279;28;20450;-85
2021/08/31 01:10:09;;;;;;;8.07;6.77;;;17.70;99.90;;;;;;5038036;28;20452;-85
2021/08/31 01:12:39;;;;;;;9.50;7.40;;;17.70;99.90;;;;;;5039829;28;20516;-84
2021/08/31 01:15:08;;;;;;;9.60;7.23;;;17.70;99.90;;;;;;5051339;28;20470;-86
2021/08/31 01:17:37;;;;;;;9.63;7.77;;;17.70;99.90;;;;;;5045516;28;20464;-87
2021/08/31 01:20:05;;;;;;;13.93;8.87;;;17.70;1.00;;;;;;5051691;28;21195;-87
2021/08/31 01:22:34;;;;;;;10.10;7.90;;;17.70;1.00;;;;;;5053546;28;20512;-87
2021/08/31 01:25:06;;;;;;;11.37;8.43;;;17.70;1.00;;;;;;5045491;28;20937;-85
2021/08/31 01:27:35;;;;;;;12.47;8.70;;;17.70;99.90;;;;;;5051448;28;20457;-86
2021/08/31 01:30:04;;;;;;;9.73;8.40;;;17.70;1.00;;;;;;5050046;28;20470;-85
2021/08/31 01:32:33;;;;;;;11.10;8.50;;;17.70;1.00;;;;;;5049371;28;20473;-86
2021/08/31 01:35:01;;;;;;;10.90;9.10;;;17.70;1.00;;;;;;5047596;28;20507;-86
2021/08/31 01:37:29;;;;;;;12.30;8.60;;;17.70;99.90;;;;;;5052246;28;20456;-86
2021/08/31 01:39:57;;;;;;;11.37;8.67;;;17.70;99.90;;;;;;5049579;28;20500;-85
2021/08/31 01:42:45;;;;;;;15.40;9.90;;;17.70;99.90;;;;;;5038710;28;20453;-88
2021/08/31 01:45:13;;;;;;;12.07;9.03;;;17.70;1.00;;;;;;5045357;28;21047;-85
2021/08/31 01:47:41;;;;;;;11.07;9.53;;;17.70;1.00;;;;;;5041178;28;20461;-84
2021/08/31 01:50:10;;;;;;;12.30;9.67;;;17.70;1.00;;;;;;5052223;28;20462;-87
2021/08/31 01:52:38;;;;;;;10.73;8.40;;;17.70;99.90;;;;;;5046671;28;20451;-84
2021/08/31 01:55:07;;;;;;;10.37;9.27;;;17.60;99.90;;;;;;5053212;28;21010;-86
2021/08/31 01:57:35;;;;;;;12.03;8.63;;;17.70;99.90;;;;;;5051140;28;20831;-84
2021/08/31 02:00:06;;;;;;;10.43;8.97;;;17.70;99.90;;;;;;5053654;28;20450;-82
2021/08/31 02:02:34;;;;;;;13.00;9.43;;;17.70;99.90;;;;;;5045626;28;20520;-84
2021/08/31 02:05:02;;;;;;;11.70;9.60;;;17.70;99.90;;;;;;5051134;28;20458;-85
2021/08/31 02:07:30;;;;;;;12.87;9.43;;;17.70;3.80;;;;;;5051352;28;20454;-84
2021/08/31 02:09:58;;;;;;;12.43;9.43;;;17.70;55.70;;;;;;5050460;28;20446;-86
2021/08/31 02:12:27;;;;;;;12.53;10.07;;;17.70;81.70;;;;;;5051689;28;20460;-84
2021/08/31 02:14:55;;;;;;;14.67;10.00;;;17.70;99.90;;;;;;5053250;28;20457;-83
2021/08/31 02:17:24;;;;;;;11.80;9.40;;;17.70;99.90;;;;;;5050551;28;20719;-84
2021/08/31 02:19:52;;;;;;;11.63;8.60;;;17.70;1.00;;;;;;5050805;28;20489;-82
2021/08/31 02:22:20;;;;;;;12.13;9.30;;;17.70;1.00;;;;;;5051648;28;20465;-84
2021/08/31 02:24:49;;;;;;;9.60;8.47;;;17.70;45.90;;;;;;5051911;28;20886;-82
2021/08/31 02:27:17;;;;;;;11.30;8.90;;;17.70;1.00;;;;;;5044822;28;20909;-83
2021/08/31 02:29:45;;;;;;;10.20;8.33;;;17.70;99.90;;;;;;5047856;28;20470;-84
2021/08/31 02:32:13;;;;;;;11.10;8.30;;;17.70;99.90;;;;;;5049502;28;20454;-84
2021/08/31 02:34:43;;;;;;;11.77;8.67;;;17.60;99.90;;;;;;5047890;28;20479;-85
2021/08/31 02:37:11;;;;;;;10.53;8.30;;;17.60;99.90;;;;;;5045529;28;20533;-83
2021/08/31 02:39:39;;;;;;;11.23;8.60;;;17.70;1.00;;;;;;5043501;28;20477;-83
2021/08/31 02:42:07;;;;;;;10.07;8.97;;;17.70;1.00;;;;;;5046483;28;20966;-86
2021/08/31 02:44:36;;;;;;;10.43;8.47;;;17.70;1.00;;;;;;5030542;28;20455;-84
2021/08/31 02:47:04;;;;;;;10.70;8.73;;;17.60;99.90;;;;;;5041832;28;20452;-84
2021/08/31 02:49:33;;;;;;;8.63;7.73;;;17.60;99.90;;;;;;5049646;28;20494;-86
2021/08/31 02:52:03;;;;;;;10.00;7.90;;;17.60;99.90;;;;;;5051096;28;20965;-85
2021/08/31 02:54:31;;;;;;;9.63;7.90;;;17.60;1.00;;;;;;5050737;28;20515;-85
2021/08/31 02:56:59;;;;;;;11.00;7.70;;;17.60;99.90;;;;;;5051823;28;20473;-84
2021/08/31 02:59:27;;;;;;;11.67;7.00;;;17.60;99.90;;;;;;5044655;28;20486;-85
2021/08/31 03:02:07;;;;;;;9.50;7.93;;;17.60;99.90;;;;;;5046309;28;20519;-84
2021/08/31 03:04:38;;;;;;;9.57;8.17;;;17.60;99.90;;;;;;5053294;28;20464;-87
2021/08/31 03:07:09;;;;;;;9.47;6.97;;;17.60;1.00;;;;;;5057893;28;20454;-85
2021/08/31 03:09:38;;;;;;;9.27;8.10;;;17.60;98.10;;;;;;5053617;28;20488;-83
2021/08/31 03:12:07;;;;;;;9.40;8.40;;;17.60;1.00;;;;;;5048055;28;20454;-84
2021/08/31 03:14:35;;;;;;;10.90;8.40;;;17.60;1.00;;;;;;5034511;28;20886;-83
2021/08/31 03:17:04;;;;;;;9.10;8.10;;;17.60;1.00;;;;;;5046809;28;20469;-85
2021/08/31 03:19:33;;;;;;;11.40;7.63;;;17.60;99.90;;;;;;5044866;28;20535;-82
2021/08/31 03:22:03;;;;;;;9.40;7.43;;;17.60;1.00;;;;;;5049526;28;20465;-87
2021/08/31 03:24:33;;;;;;;8.63;7.77;;;17.60;1.00;;;;;;5048216;28;20503;-85
2021/08/31 03:27:01;;;;;;;10.80;7.77;;;17.60;1.00;;;;;;5050022;28;20515;-85
2021/08/31 03:29:29;;;;;;;11.43;9.23;;;17.60;1.00;;;;;;5050013;28;20526;-84
2021/08/31 03:31:57;;;;;;;9.67;8.00;;;17.60;99.90;;;;;;5049174;28;20449;-85
2021/08/31 03:34:25;;;;;;;9.43;7.77;;;17.60;1.00;;;;;;5059674;28;20481;-84
2021/08/31 03:36:53;;;;;;;11.00;8.10;;;17.60;1.00;;;;;;5048863;28;20903;-83
2021/08/31 03:39:22;;;;;;;9.10;7.70;;;17.60;99.90;;;;;;5048205;28;20469;-84
2021/08/31 03:41:51;;;;;;;10.40;8.60;;;17.60;97.60;;;;;;5048186;28;20441;-84
2021/08/31 03:44:24;;;;;;;9.40;8.17;;;17.60;1.00;;;;;;5049307;28;20460;-85
2021/08/31 03:46:52;;;;;;;9.67;8.10;;;17.60;1.00;;;;;;5047480;28;20507;-84
2021/08/31 03:49:20;;;;;;;12.80;8.50;;;17.70;1.00;;;;;;5048820;28;20983;-84
2021/08/31 03:51:48;;;;;;;13.20;8.50;;;17.60;1.00;;;;;;5049280;28;20449;-83
2021/08/31 03:54:16;;;;;;;13.00;9.47;;;17.60;1.00;;;;;;5043253;28;21002;-84
2021/08/31 03:56:44;;;;;;;11.83;9.13;;;17.60;1.00;;;;;;5036147;28;20476;-82
2021/08/31 03:59:14;;;;;;;19.40;9.83;;;17.60;1.00;;;;;;5028353;28;20484;-85
2021/08/31 04:01:42;;;;;;;11.53;9.20;;;17.60;1.00;;;;;;5044101;28;20463;-85
2021/08/31 04:04:10;;;;;;;12.10;9.50;;;17.60;1.00;;;;;;5034600;28;20443;-84
2021/08/31 04:06:39;;;;;;;11.40;8.93;;;17.60;1.00;;;;;;5048924;28;20472;-84
2021/08/31 04:09:07;;;;;;;11.77;8.90;;;17.60;1.00;;;;;;5044019;28;20472;-84
2021/08/31 04:11:35;;;;;;;13.27;9.50;;;17.60;1.00;;;;;;5050382;28;20823;-86
2021/08/31 04:14:03;;;;;;;11.20;9.10;;;17.60;99.90;;;;;;5043807;28;20494;-84
2021/08/31 04:16:32;;;;;;;12.50;8.73;;;17.60;99.90;;;;;;5049921;28;20469;-84
2021/08/31 04:19:01;;;;;;;11.60;8.63;;;17.60;1.00;;;;;;5047688;28;20526;-87
2021/08/31 04:21:29;;;;;;;12.80;10.13;;;17.60;99.90;;;;;;5051000;28;20450;-85
2021/08/31 04:23:57;;;;;;;12.40;8.70;;;17.60;99.90;;;;;;5032594;28;20515;-84
2021/08/31 04:26:25;;;;;;;10.50;8.60;;;17.60;1.00;;;;;;5032720;28;20445;-84
2021/08/31 04:28:53;;;;;;;10.50;9.03;;;17.60;99.90;;;;;;5043868;28;20554;-84
2021/08/31 04:31:22;;;;;;;13.30;10.47;;;17.60;1.00;;;;;;5050997;28;20457;-86
2021/08/31 04:33:52;;;;;;;12.07;9.20;;;17.60;99.90;;;;;;5049320;28;20571;-84
2021/08/31 04:36:20;;;;;;;13.20;9.67;;;17.60;1.00;;;;;;5048092;28;20504;-84
2021/08/31 04:38:49;;;;;;;12.50;9.77;;;17.60;1.00;;;;;;5038154;28;21010;-84
2021/08/31 04:41:17;;;;;;;12.60;9.70;;;17.60;1.00;;;;;;5050796;28;20486;-84
2021/08/31 04:43:45;;;;;;;13.40;9.27;;;17.60;1.00;;;;;;5048886;28;21021;-84
2021/08/31 04:46:13;;;;;;;11.03;9.17;;;17.60;1.00;;;;;;5048372;28;20448;-83
2021/08/31 04:48:41;;;;;;;13.53;9.57;;;17.60;1.00;;;;;;5051431;28;20493;-85
2021/08/31 04:51:11;;;;;;;10.23;8.30;;;17.60;99.90;;;;;;5030170;28;20443;-85
2021/08/31 04:53:39;;;;;;;13.27;8.70;;;17.60;99.90;;;;;;5031526;28;20491;-84
2021/08/31 04:56:07;;;;;;;13.40;9.57;;;17.60;1.00;;;;;;5055196;28;20460;-84
2021/08/31 04:58:35;;;;;;;13.03;9.97;;;17.60;99.90;;;;;;5038975;28;20501;-83
2021/08/31 05:01:04;;;;;;;11.13;8.73;;;17.60;99.90;;;;;;5047881;28;21192;-84
2021/08/31 05:03:33;;;;;;;9.50;8.10;;;17.60;99.90;;;;;;5035066;28;20976;-84
2021/08/31 05:06:02;;;;;;;11.00;8.27;;;17.60;99.90;;;;;;5054928;28;20461;-84
2021/08/31 05:08:31;;;;;;;12.90;9.70;;;17.60;99.90;;;;;;5050424;28;20514;-83
2021/08/31 05:10:59;;;;;;;12.03;9.93;;;17.60;99.90;;;;;;5050879;28;20464;-82
2021/08/31 05:13:27;;;;;;;9.90;8.37;;;17.60;93.90;;;;;;5065966;28;20505;-82
2021/08/31 05:15:55;;;;;;;12.47;8.97;;;17.60;99.90;;;;;;5047324;28;20483;-72
2021/08/31 05:18:24;;;;;;;12.50;9.40;;;17.60;99.90;;;;;;5042161;28;20561;-76
2021/08/31 05:20:52;;;;;;;12.17;8.50;;;17.40;1.00;;;;;;5041191;28;20936;-77
2021/08/31 05:23:20;;;;;;;9.90;8.43;;;17.30;99.90;;;;;;5049065;28;20975;-78
2021/08/31 05:25:49;;;;;;;11.63;8.90;;;17.20;1.00;;;;;;5047699;28;20719;-83
2021/08/31 05:28:17;;;;;;;11.33;9.27;;;17.30;1.00;;;;;;5046716;28;20478;-79
2021/08/31 05:30:46;;;;;;;12.37;9.90;;;17.40;99.90;;;;;;5028583;28;20450;-79
2021/08/31 05:33:14;;;;;;;12.17;9.33;;;17.40;99.90;;;;;;5048612;28;20510;-79
2021/08/31 05:35:42;;;;;;;12.87;9.23;;;17.50;1.00;;;;;;5036288;28;20452;-77
2021/08/31 05:38:10;;;;;;;10.30;8.80;;;17.50;99.90;;;;;;5046999;28;20496;-81
2021/08/31 05:40:38;;;;;;;12.90;9.17;;;17.50;1.00;;;;;;5045535;28;20510;-79
2021/08/31 05:43:08;;;;;;;15.53;9.10;;;17.50;94.50;;;;;;5048460;28;20469;-80
2021/08/31 05:45:36;;;;;;;11.03;9.20;;;17.50;1.00;;;;;;5048596;28;20464;-79
2021/08/31 05:48:05;;;;;;;14.07;9.37;;;17.50;1.00;;;;;;5051688;28;21000;-78
2021/08/31 05:50:33;;;;;;;14.30;9.83;;;17.50;99.90;;;;;;5062624;28;20448;-79
2021/08/31 05:53:01;;;;;;;12.27;9.37;;;17.50;1.00;;;;;;5048157;28;20538;-78
2021/08/31 05:55:29;;;;;;;12.90;9.53;;;17.50;99.90;;;;;;5046583;28;20514;-78
2021/08/31 05:57:57;;;;;;;12.50;9.17;;;17.50;1.00;;;;;;5045460;28;20525;-79
2021/08/31 06:00:27;;;;;;;13.13;9.40;;;17.50;1.00;;;;;;5048827;28;20874;-79
2021/08/31 06:02:56;;;;;;;13.00;9.87;;;17.50;1.00;;;;;;5048783;28;20965;-81
2021/08/31 06:05:24;;;;;;;12.10;9.37;;;17.50;1.00;;;;;;5051220;28;20461;-80
2021/08/31 06:07:53;;;;;;;12.17;9.07;;;17.60;1.00;;;;;;5051610;28;20477;-79
2021/08/31 06:10:21;;;;;;;12.87;10.33;;;17.60;99.90;;;;;;5045200;28;20514;-81
2021/08/31 06:12:49;;;;;;;12.70;9.53;;;17.60;99.90;;;;;;5050120;28;20472;-79
2021/08/31 06:15:19;;;;;;;12.07;7.77;;;17.60;1.00;;;;;;5046476;28;20529;-79
2021/08/31 06:17:48;;;;;;;14.10;9.63;;;17.60;99.90;;;;;;5051014;28;20477;-79
2021/08/31 06:20:17;;;;;;;11.63;8.83;;;17.60;99.90;;;;;;5050809;28;20457;-78
2021/08/31 06:22:46;;;;;;;10.50;8.30;;;17.60;99.90;;;;;;5042416;28;20875;-78
2021/08/31 06:25:14;;;;;;;11.20;9.77;;;17.70;99.90;;;;;;5049703;28;20446;-78
2021/08/31 06:27:49;;;;;;;11.93;9.30;;;17.60;1.00;;;;;;5052585;28;20460;-76
2021/08/31 06:30:17;;;;;;;10.77;9.27;;;17.60;99.90;;;;;;5050831;28;20867;-79
2021/08/31 06:32:49;;;;;;;18.53;9.03;;;17.60;1.00;;;;;;5046104;28;20860;-79
2021/08/31 06:35:23;;;;;;;10.73;8.30;;;17.70;99.90;;;;;;5033838;28;20443;-80
2021/08/31 06:37:56;;;;;;;11.80;8.10;;;17.60;99.90;;;;;;5036211;28;20477;-78
2021/08/31 06:40:33;;;;;;;11.70;9.60;;;17.60;99.90;;;;;;5040057;28;20457;-78
2021/08/31 06:43:03;;;;;;;9.97;8.93;;;17.60;24.60;;;;;;5050379;28;20457;-79
2021/08/31 06:45:32;;;;;;;10.40;8.40;;;17.60;1.00;;;;;;5050658;28;20490;-82
2021/08/31 06:48:01;;;;;;;9.77;8.27;;;17.60;99.90;;;;;;5043707;28;20473;-79
2021/08/31 06:50:29;;;;;;;9.77;8.77;;;17.60;99.90;;;;;;5040372;28;20448;-80
2021/08/31 06:52:58;;;;;;;11.90;8.37;;;17.70;99.90;;;;;;5046893;28;20457;-81
2021/08/31 06:55:26;;;;;;;9.17;7.87;;;17.70;1.00;;;;;;5045268;28;20969;-80
2021/08/31 06:57:54;;;;;;;9.60;7.07;;;17.70;99.90;;;;;;5046187;28;20492;-80
2021/08/31 07:00:22;;;;;;;12.67;8.40;;;17.70;1.00;;;;;;5044091;28;20517;-80
2021/08/31 07:02:51;;;;;;;6.37;5.80;;;17.70;1.00;;;;;;5049374;28;20452;-79
2021/08/31 07:05:20;;;;;;;10.30;6.97;;;17.70;1.00;;;;;;5046138;28;20462;-80
2021/08/31 07:07:48;;;;;;;10.43;8.33;;;17.70;99.90;;;;;;5049072;28;21048;-79
2021/08/31 07:10:17;;;;;;;7.33;6.53;;;17.70;1.00;;;;;;5047489;28;20464;-78
2021/08/31 07:12:45;;;;;;;11.70;8.93;;;17.70;1.00;;;;;;5048912;28;20457;-79
2021/08/31 07:15:13;;;;;;;11.17;7.73;;;17.70;1.00;;;;;;5046197;28;20456;-78
2021/08/31 07:17:41;;;;;;;7.83;6.87;;;17.80;99.90;;;;;;5036638;28;20448;-78
2021/08/31 07:20:11;;;;;;;9.47;7.67;;;17.80;1.00;;;;;;5046702;28;20459;-80
2021/08/31 07:22:41;;;;;;;9.10;7.80;;;17.80;1.00;;;;;;5048829;28;20459;-80
2021/08/31 07:25:10;;;;;;;8.03;7.17;;;17.80;99.90;;;;;;5042931;28;20564;-79
2021/08/31 07:27:38;;;;;;;8.60;7.13;;;17.80;99.90;;;;;;5045579;28;20468;-79
2021/08/31 07:30:08;;;;;;;8.97;7.10;;;17.80;24.40;;;;;;5045534;28;20470;-81
2021/08/31 07:32:36;;;;;;;8.17;6.63;;;17.80;99.90;;;;;;5046843;28;21093;-78
2021/08/31 07:35:05;;;;;;;10.70;6.73;;;17.90;99.90;;;;;;5046400;28;20455;-79
2021/08/31 07:37:34;;;;;;;7.50;6.57;;;17.90;1.00;;;;;;5047359;28;20585;-78
2021/08/31 07:40:05;;;;;;;8.30;7.50;;;17.90;1.00;;;;;;5046517;28;20468;-78
2021/08/31 07:42:34;;;;;;;10.90;6.70;;;17.90;1.00;;;;;;5062701;28;20454;-79
2021/08/31 07:45:04;;;;;;;10.03;7.90;;;17.80;99.90;;;;;;5055938;28;20460;-79
2021/08/31 07:47:32;;;;;;;10.43;7.90;;;17.80;1.00;;;;;;5043043;28;20460;-79
2021/08/31 07:50:03;;;;;;;8.23;7.17;;;17.80;1.00;;;;;;5046750;28;20454;-80
2021/08/31 07:52:32;;;;;;;11.37;7.80;;;17.80;1.00;;;;;;5046799;28;20862;-78
2021/08/31 07:55:00;;;;;;;7.93;7.20;;;17.90;99.90;;;;;;5046983;28;20480;-80
2021/08/31 07:57:29;;;;;;;9.65;7.60;;;18.00;1.00;;;;;;5040100;28;20453;-79
2021/08/31 07:59:58;;;;;;;9.10;7.13;;;18.20;1.00;;;;;;5045515;28;20702;-82
2021/08/31 08:02:33;;;;;;;8.60;7.50;;;18.30;1.00;;;;;;5047303;28;20492;-79
2021/08/31 08:05:01;;;;;;;8.87;7.97;;;18.30;50.00;;;;;;5047073;28;20451;-79
2021/08/31 08:07:29;;;;;;;7.57;5.70;;;18.40;1.00;;;;;;5062997;28;20455;-78
2021/08/31 08:09:58;;;;;;;10.73;6.67;;;18.40;61.10;;;;;;5046541;28;20445;-80
2021/08/31 08:12:26;;;;;;;8.20;6.27;;;18.40;57.30;;;;;;5045665;28;20449;-80
2021/08/31 08:14:57;;;;;;;6.20;5.60;;;18.40;1.00;;;;;;5041477;28;20471;-78
2021/08/31 08:17:25;;;;;;;6.73;5.60;;;18.40;99.90;;;;;;5037196;28;20449;-78
2021/08/31 08:19:54;;;;;;;7.73;5.77;;;18.40;99.90;;;;;;5044232;28;20502;-79
2021/08/31 08:22:22;;;;;;;9.13;6.33;;;18.40;46.20;;;;;;5046961;28;20495;-80
2021/08/31 08:24:50;;;;;;;7.07;6.13;;;18.50;1.00;;;;;;5062555;28;20454;-80
2021/08/31 08:27:19;;;;;;;10.17;6.23;;;18.40;99.90;;;;;;5039273;28;20458;-81
2021/08/31 08:29:47;;;;;;;5.13;4.73;;;18.40;1.00;;;;;;5043566;28;20496;-80
2021/08/31 08:32:17;;;;;;;5.53;4.90;;;18.40;99.90;;;;;;5044682;28;20468;-79
2021/08/31 08:34:45;;;;;;;5.07;4.60;;;18.40;1.00;;;;;;5041756;28;20469;-79
2021/08/31 08:37:13;;;;;;;5.10;4.70;;;18.40;1.00;;;;;;5045868;28;20528;-77
2021/08/31 08:39:42;;;;;;;5.60;5.07;;;18.40;1.00;;;;;;5042617;28;20477;-79
2021/08/31 08:42:12;;;;;;;4.57;3.90;;;18.50;1.00;;;;;;5046943;28;21008;-79
2021/08/31 08:44:40;;;;;;;4.73;4.17;;;18.60;1.00;;;;;;5047686;28;20512;-81
2021/08/31 08:47:09;;;;;;;6.23;3.60;;;18.60;1.00;;;;;;5044713;28;20467;-81
2021/08/31 08:49:39;;;;;;;4.60;3.93;;;18.60;99.90;;;;;;5043995;28;20475;-80
2021/08/31 08:52:07;;;;;;;4.57;3.87;;;18.70;31.60;;;;;;5045084;28;20499;-79
2021/08/31 08:54:36;;;;;;;4.10;3.63;;;18.70;18.60;;;;;;5045698;28;20454;-79
2021/08/31 08:57:04;;;;;;;5.53;4.37;;;18.70;99.90;;;;;;5050065;28;20505;-79
2021/08/31 08:59:32;;;;;;;5.07;4.07;;;18.70;99.90;;;;;;5046817;28;20572;-79
2021/08/31 09:02:01;;;;;;;5.53;4.37;;;18.70;1.00;;;;;;5050096;28;20533;-80
2021/08/31 09:04:48;;;;;;;4.00;3.60;;;18.60;99.90;;;;;;5049483;28;21119;-78
2021/08/31 09:07:21;;;;;;;6.60;4.40;;;18.70;99.90;;;;;;5048024;28;20472;-79
2021/08/31 09:09:52;;;;;;;4.13;3.73;;;18.70;1.00;;;;;;5046880;28;20486;-79
2021/08/31 09:12:30;;;;;;;6.23;4.67;;;18.70;99.90;;;;;;5048288;28;20517;-78
2021/08/31 09:15:24;;;;;;;6.30;4.60;;;18.70;52.00;;;;;;5028582;28;20805;-79
2021/08/31 09:18:17;;;;;;;6.80;4.57;;;18.70;1.00;;;;;;5043385;28;20903;-80
2021/08/31 09:21:02;;;;;;;5.10;4.70;;;18.70;1.00;;;;;;5017845;28;20492;-79
2021/08/31 09:23:32;;;;;;;5.20;4.07;;;18.80;99.90;;;;;;5040668;28;20849;-79
2021/08/31 09:26:08;;;;;;;7.10;5.07;;;18.80;1.00;;;;;;5041364;28;20830;-79
2021/08/31 09:28:38;;;;;;;6.00;5.20;;;18.80;1.00;;;;;;5048657;28;20493;-81
2021/08/31 09:31:09;;;;;;;5.50;4.37;;;18.80;93.70;;;;;;5047413;28;20456;-80
2021/08/31 09:33:38;;;;;;;5.50;5.00;;;18.80;1.00;;;;;;5045964;28;20459;-79
2021/08/31 09:36:11;;;;;;;5.60;5.00;;;18.80;1.00;;;;;;5048110;28;20880;-80
2021/08/31 09:38:52;;;;;;;6.43;4.60;;;18.90;99.90;;;;;;5047669;28;20475;-80
2021/08/31 09:41:36;;;;;;;5.23;4.70;;;18.90;1.00;;;;;;5049047;28;20471;-79
2021/08/31 09:44:08;;;;;;;5.80;4.57;;;19.00;99.90;;;;;;5049440;28;20440;-79
2021/08/31 09:46:52;;;;;;;5.40;4.90;;;19.00;99.90;;;;;;5050272;28;20444;-79
2021/08/31 09:49:23;;;;;;;6.50;4.00;;;19.00;99.90;;;;;;5047388;28;21203;-79
2021/08/31 09:52:07;;;;;;;4.87;4.47;;;19.10;99.90;;;;;;5047400;28;21165;-79
2021/08/31 09:54:37;;;;;;;6.10;4.67;;;19.20;57.00;;;;;;5050177;28;20562;-78
2021/08/31 09:57:31;;;;;;;6.43;5.93;;;19.30;99.90;;;;;;5051033;28;20549;-80
2021/08/31 10:00:00;;;;;;;6.17;5.50;;;19.30;99.90;;;;;;5032535;28;20471;-81
2021/08/31 10:02:29;;;;;;;5.87;5.33;;;19.40;1.00;;;;;;5046024;28;20455;-82
2021/08/31 10:04:57;;;;;;;4.80;4.33;;;19.40;99.90;;;;;;5046217;28;20456;-80
2021/08/31 10:07:27;;;;;;;5.60;5.10;;;19.50;1.00;;;;;;5048001;28;20459;-81
2021/08/31 10:09:55;;;;;;;5.00;4.60;;;19.60;1.00;;;;;;5046109;28;20501;-80
2021/08/31 10:12:24;;;;;;;7.37;4.67;;;19.70;1.00;;;;;;5064625;28;20236;-82
2021/08/31 10:14:55;;;;;;;4.60;4.20;;;19.70;99.90;;;;;;5046658;28;21013;-78
2021/08/31 10:17:25;;;;;;;5.03;3.90;;;19.70;99.90;;;;;;5041236;28;20444;-79
2021/08/31 10:19:55;;;;;;;7.10;4.80;;;19.70;99.90;;;;;;5045100;28;20537;-79
2021/08/31 10:22:25;;;;;;;4.73;4.10;;;19.70;99.90;;;;;;5065854;28;20455;-79
2021/08/31 10:24:55;;;;;;;5.63;4.40;;;19.60;99.90;;;;;;5047735;28;20610;-80
2021/08/31 10:27:35;;;;;;;4.40;4.00;;;19.60;99.90;;;;;;5051670;28;20892;-79
2021/08/31 10:30:38;;;;;;;4.83;4.37;;;19.60;99.90;;;;;;5046796;28;20474;-80
2021/08/31 10:33:29;;;;;;;4.80;4.00;;;19.50;99.90;;;;;;5044382;28;20790;-81
2021/08/31 10:35:58;;;;;;;5.80;4.80;;;19.40;99.90;;;;;;5038971;28;20477;-81
2021/08/31 10:38:47;;;;;;;5.27;4.70;;;19.40;99.90;;;;;;5043272;28;20475;-81
2021/08/31 10:41:36;;;;;;;5.37;3.90;;;19.40;99.90;;;;;;5059675;28;20483;-80
2021/08/31 10:44:05;;;;;;;6.53;4.73;;;19.40;99.90;;;;;;5048719;28;20440;-81
2021/08/31 10:47:07;;;;;;;6.60;5.27;;;19.40;99.90;;;;;;5047872;28;20531;-81
2021/08/31 10:50:15;;;;;;;4.93;4.30;;;19.30;99.90;;;;;;4965201;28;20541;-81
2021/08/31 10:53:04;;;;;;;7.63;5.30;;;19.30;99.90;;;;;;5044905;28;20447;-81
2021/08/31 10:55:45;;;;;;;7.40;5.10;;;19.40;99.90;;;;;;5047076;28;21226;-80
2021/08/31 10:58:30;;;;;;;5.17;4.17;;;19.40;99.90;;;;;;5047678;28;20496;-81
2021/08/31 11:00:59;;;;;;;4.90;4.40;;;19.40;99.90;;;;;;5041141;28;20935;-82
2021/08/31 11:03:49;;;;;;;3.90;3.40;;;19.40;99.90;;;;;;5046292;28;20458;-80
2021/08/31 11:06:27;;;;;;;4.90;3.73;;;19.40;99.90;;;;;;5040013;28;20463;-83
2021/08/31 11:09:19;;;;;;;4.30;3.90;;;19.40;99.90;;;;;;5046184;28;20467;-81
2021/08/31 11:12:12;;;;;;;4.67;3.73;;;19.40;99.90;;;;;;5045234;28;20510;-81
2021/08/31 11:14:52;;;;;;;4.17;3.87;;;19.50;99.90;;;;;;5047670;28;20428;-80
2021/08/31 11:17:35;;;;;;;4.23;3.83;;;19.40;99.90;;;;;;5046212;28;20447;-79
2021/08/31 11:20:20;;;;;;;5.97;4.83;;;19.50;99.90;;;;;;5046281;28;20463;-82
2021/08/31 11:22:52;;;;;;;5.40;4.40;;;19.50;99.90;;;;;;5047111;28;20449;-79
2021/08/31 11:25:30;;;;;;;6.17;3.97;;;19.50;99.90;;;;;;5040396;28;20447;-80
2021/08/31 11:28:00;;;;;;;7.17;4.33;;;19.60;99.90;;;;;;5046045;28;20479;-80
2021/08/31 11:30:45;;;;;;;4.73;4.20;;;19.60;99.90;;;;;;5042341;28;20559;-80
2021/08/31 11:33:19;;;;;;;5.40;4.37;;;19.60;99.90;;;;;;5043360;28;20871;-81
2021/08/31 11:35:51;;;;;;;6.33;5.67;;;19.70;99.90;;;;;;5043876;28;20459;-80
2021/08/31 11:38:29;;;;;;;5.50;4.40;;;19.70;25.90;;;;;;5047007;28;20469;-80
2021/08/31 11:41:09;;;;;;;4.20;3.23;;;19.70;99.90;;;;;;5043618;28;20981;-80
2021/08/31 11:43:37;;;;;;;3.97;3.67;;;19.70;97.00;;;;;;5045881;28;20462;-79
2021/08/31 11:46:08;;;;;;;4.53;3.77;;;19.70;90.60;;;;;;5041963;28;20463;-79
2021/08/31 11:48:36;;;;;;;4.83;4.33;;;19.80;99.90;;;;;;5046591;28;20468;-80
2021/08/31 11:51:05;;;;;;;4.93;4.33;;;19.80;99.90;;;;;;5044583;28;20463;-81
2021/08/31 11:53:33;;;;;;;6.43;4.40;;;19.80;99.90;;;;;;5043571;28;20460;-81
2021/08/31 11:56:04;;;;;;;4.13;3.83;;;19.80;99.90;;;;;;5045878;28;20454;-80
2021/08/31 11:58:42;;;;;;;5.50;3.90;;;19.70;95.10;;;;;;5045276;28;21033;-81
2021/08/31 12:01:12;;;;;;;5.80;5.30;;;19.80;49.70;;;;;;5059325;28;21184;-79
2021/08/31 12:03:41;;;;;;;5.70;4.70;;;19.70;93.50;;;;;;5045476;28;20485;-80
2021/08/31 12:06:13;;;;;;;8.10;4.60;;;19.80;65.30;;;;;;5041873;28;20534;-80
2021/08/31 12:08:44;;;;;;;6.97;5.60;;;19.80;74.20;;;;;;5043913;28;20490;-81
2021/08/31 12:11:17;;;;;;;5.57;4.90;;;19.70;67.30;;;;;;5046150;28;20573;-81
2021/08/31 12:13:48;;;;;;;5.47;4.93;;;19.80;75.90;;;;;;5043707;28;20460;-80
2021/08/31 12:16:20;;;;;;;4.70;4.27;;;19.80;81.40;;;;;;5045592;28;20970;-79
2021/08/31 12:18:48;;;;;;;4.40;4.00;;;19.80;18.70;;;;;;5044330;28;20468;-79
2021/08/31 12:21:19;;;;;;;5.20;4.30;;;19.80;12.10;;;;;;5046082;28;20525;-80
2021/08/31 12:23:49;;;;;;;6.90;5.68;;;19.80;1.00;;;;;;5044688;28;20435;-82
2021/08/31 12:26:33;;;;;;;5.20;4.60;;;19.90;15.00;;;;;;5042336;28;20197;-81
2021/08/31 12:29:04;;;;;;;4.90;4.40;;;20.00;35.40;;;;;;5047349;28;20471;-80
2021/08/31 12:31:35;;;;;;;3.80;3.50;;;20.10;21.20;;;;;;5047768;28;20448;-81
2021/08/31 12:34:24;;;;;;;4.60;4.20;;;20.10;1.00;;;;;;5047707;28;20459;-81
2021/08/31 12:36:53;;;;;;;3.90;3.60;;;20.10;1.00;;;;;;5048071;28;20539;-82
2021/08/31 12:39:25;;;;;;;4.00;3.70;;;20.00;1.00;;;;;;5062279;28;20571;-80
2021/08/31 12:41:54;;;;;;;3.40;3.10;;;20.10;1.00;;;;;;5044760;28;20582;-82
2021/08/31 12:44:23;;;;;;;4.30;3.90;;;20.10;1.00;;;;;;5044971;28;20489;-78
2021/08/31 12:47:07;;;;;;;6.47;3.55;;;20.10;1.00;;;;;;5046687;28;20436;-80
2021/08/31 12:49:35;;;;;;;3.57;3.27;;;20.10;1.00;;;;;;5046558;28;20240;-82
2021/08/31 12:52:15;;;;;;;3.77;3.50;;;20.10;1.00;;;;;;5053088;28;20518;-82
2021/08/31 12:54:51;;;;;;;3.50;3.20;;;20.10;1.00;;;;;;5048076;28;20486;-81
2021/08/31 12:57:25;;;;;;;3.93;3.63;;;20.00;1.00;;;;;;5049604;28;20994;-81
2021/08/31 12:59:53;;;;;;;3.37;3.13;;;20.10;1.00;;;;;;5052157;28;20464;-83
2021/08/31 13:02:36;;;;;;;4.33;3.97;;;20.10;1.00;;;;;;5050760;28;20554;-83
2021/08/31 13:05:12;;;;;;;3.50;3.20;;;20.10;1.00;;;;;;5041253;28;20451;-82
2021/08/31 13:07:40;;;;;;;3.40;3.10;;;20.10;1.00;;;;;;5051837;28;20937;-83